createdAt,value
2023-04-09T00:01:21.191Z,9.20
2023-04-09T00:03:47.765Z,6.68
2023-04-09T00:06:14.410Z,8.30
2023-04-09T00:08:41.192Z,7.50
2023-04-09T00:11:07.742Z,7.45
2023-04-09T00:13:39.124Z,5.72
2023-04-09T00:16:06.450Z,9.48
2023-04-09T00:18:33.092Z,9.65
2023-04-09T00:20:59.579Z,12.85
2023-04-09T00:23:26.186Z,11.32
2023-04-09T00:25:52.756Z,6.50
2023-04-09T00:28:19.328Z,8.15
2023-04-09T00:30:45.888Z,7.85
2023-04-09T00:33:12.379Z,8.85
2023-04-09T00:35:38.937Z,12.82
2023-04-09T00:38:05.615Z,11.65
2023-04-09T00:40:32.333Z,10.70
2023-04-09T00:42:58.806Z,10.75
2023-04-09T00:45:25.328Z,9.50
2023-04-09T00:47:51.976Z,8.50
2023-04-09T00:50:18.530Z,9.73
2023-04-09T00:52:45.464Z,8.55
2023-04-09T00:55:12.661Z,8.25
2023-04-09T00:57:39.179Z,12.90
2023-04-09T01:00:07.851Z,12.38
2023-04-09T01:02:34.758Z,9.20
2023-04-09T01:05:01.536Z,10.07
2023-04-09T01:07:28.024Z,10.77
2023-04-09T01:09:57.677Z,9.82
2023-04-09T01:12:35.977Z,8.90
2023-04-09T01:15:06.480Z,11.25
2023-04-09T01:17:32.963Z,7.97
2023-04-09T01:20:05.498Z,6.13
2023-04-09T01:22:34.999Z,9.85
2023-04-09T01:25:13.665Z,8.10
2023-04-09T01:27:52.276Z,7.22
2023-04-09T01:30:19.237Z,11.45
2023-04-09T01:32:46.006Z,6.95
2023-04-09T01:35:12.672Z,7.00
2023-04-09T01:37:40.215Z,7.65
2023-04-09T01:40:07.417Z,10.02
2023-04-09T01:42:34.307Z,6.85
2023-04-09T01:45:01.488Z,8.75
2023-04-09T01:47:28.395Z,10.65
2023-04-09T01:49:55.056Z,9.23
2023-04-09T01:52:21.796Z,12.00
2023-04-09T01:54:48.305Z,12.30
2023-04-09T01:57:14.829Z,7.07
2023-04-09T01:59:41.382Z,12.90
2023-04-09T02:02:12.570Z,10.98
2023-04-09T02:04:46.772Z,7.22
2023-04-09T02:07:17.719Z,10.32
2023-04-09T02:09:45.608Z,8.23
2023-04-09T02:12:13.258Z,7.97
2023-04-09T02:14:40.290Z,14.48
2023-04-09T02:17:06.840Z,6.88
2023-04-09T02:19:43.342Z,8.63
2023-04-09T02:22:10.334Z,12.27
2023-04-09T02:24:36.899Z,11.23
2023-04-09T02:27:04.091Z,8.80
2023-04-09T02:29:30.973Z,9.93
2023-04-09T02:31:57.464Z,11.13
2023-04-09T02:34:24.132Z,8.57
2023-04-09T02:36:50.619Z,10.93
2023-04-09T02:39:17.102Z,7.75
2023-04-09T02:41:44.203Z,6.93
2023-04-09T02:44:10.721Z,10.73
2023-04-09T02:46:38.335Z,10.40
2023-04-09T02:49:04.903Z,8.95
2023-04-09T02:51:31.518Z,8.98
2023-04-09T02:53:58.010Z,10.70
2023-04-09T02:56:24.532Z,11.55
2023-04-09T02:58:54.295Z,10.57
2023-04-09T03:01:21.336Z,9.38
2023-04-09T03:03:49.120Z,11.30
2023-04-09T03:06:15.708Z,9.60
2023-04-09T03:08:42.209Z,18.70
2023-04-09T03:11:08.675Z,15.25
2023-04-09T03:13:35.300Z,13.68
2023-04-09T03:16:01.869Z,11.27
2023-04-09T03:18:28.426Z,13.93
2023-04-09T03:20:54.976Z,13.55
2023-04-09T03:23:21.506Z,11.98
2023-04-09T03:25:48.018Z,9.38
2023-04-09T03:28:14.507Z,19.42
2023-04-09T03:30:41.081Z,14.18
2023-04-09T03:33:07.583Z,11.55
2023-04-09T03:35:34.117Z,13.45
2023-04-09T03:38:00.653Z,16.48
2023-04-09T03:40:27.128Z,16.02
2023-04-09T03:42:53.628Z,16.00
2023-04-09T03:45:20.970Z,17.38
2023-04-09T03:47:47.474Z,17.13
2023-04-09T03:50:13.998Z,21.90
2023-04-09T03:52:40.510Z,16.33
2023-04-09T03:55:07.378Z,19.75
2023-04-09T03:57:33.864Z,15.68
2023-04-09T04:00:00.417Z,15.50
2023-04-09T04:02:27.371Z,17.60
2023-04-09T04:04:54.153Z,24.30
2023-04-09T04:07:20.835Z,16.65
2023-04-09T04:09:47.364Z,19.48
2023-04-09T04:12:13.850Z,22.17
2023-04-09T04:14:40.383Z,21.10
2023-04-09T04:17:06.865Z,19.80
2023-04-09T04:19:33.401Z,24.85
2023-04-09T04:21:59.953Z,24.42
2023-04-09T04:24:26.478Z,18.85
2023-04-09T04:26:52.958Z,28.10
2023-04-09T04:29:19.582Z,24.35
2023-04-09T04:31:46.168Z,25.88
2023-04-09T04:34:12.706Z,26.20
2023-04-09T04:36:39.220Z,25.30
2023-04-09T04:39:05.823Z,19.67
2023-04-09T04:41:32.348Z,24.48
2023-04-09T04:43:58.860Z,27.40
2023-04-09T04:46:25.647Z,25.00
2023-04-09T04:48:52.483Z,25.05
2023-04-09T04:51:19.153Z,21.60
2023-04-09T04:53:45.713Z,25.33
2023-04-09T04:56:15.732Z,30.83
2023-04-09T04:58:42.640Z,24.85
2023-04-09T05:01:09.248Z,31.05
2023-04-09T05:03:35.856Z,22.35
2023-04-09T05:06:02.485Z,29.02
2023-04-09T05:08:29.041Z,23.38
2023-04-09T05:10:58.194Z,21.92
2023-04-09T05:13:25.052Z,19.98
2023-04-09T05:15:51.740Z,24.35
2023-04-09T05:18:18.345Z,26.33
2023-04-09T05:20:44.904Z,26.92
2023-04-09T05:23:12.582Z,28.55
2023-04-09T05:25:39.283Z,26.90
2023-04-09T05:28:06.076Z,28.20
2023-04-09T05:30:32.664Z,33.08
2023-04-09T05:32:59.169Z,27.02
2023-04-09T05:35:25.950Z,26.42
2023-04-09T05:37:52.486Z,27.13
2023-04-09T05:40:19.008Z,25.33
2023-04-09T05:42:45.556Z,26.52
2023-04-09T05:45:12.080Z,32.63
2023-04-09T05:47:38.657Z,26.77
2023-04-09T05:50:05.896Z,25.15
2023-04-09T05:52:32.588Z,28.20
2023-04-09T05:54:59.076Z,23.30
2023-04-09T05:57:25.806Z,23.65
2023-04-09T05:59:52.282Z,30.17
2023-04-09T06:02:19.155Z,28.55
2023-04-09T06:04:46.084Z,23.83
2023-04-09T06:07:12.744Z,31.90
2023-04-09T06:09:39.269Z,28.17
2023-04-09T06:12:05.782Z,27.80
2023-04-09T06:14:33.292Z,32.05
2023-04-09T06:17:00.090Z,30.55
2023-04-09T06:19:26.852Z,26.63
2023-04-09T06:21:53.329Z,24.77
2023-04-09T06:24:19.838Z,35.22
2023-04-09T06:26:46.551Z,23.83
2023-04-09T06:29:13.107Z,28.30
2023-04-09T06:31:39.738Z,32.05
2023-04-09T06:34:06.412Z,30.33
2023-04-09T06:36:33.419Z,34.80
2023-04-09T06:38:59.934Z,27.17
2023-04-09T06:41:29.440Z,30.00
2023-04-09T06:43:56.008Z,25.85
2023-04-09T06:46:22.650Z,29.98
2023-04-09T06:48:49.687Z,35.50
2023-04-09T06:51:16.496Z,28.10
2023-04-09T06:53:43.113Z,27.13
2023-04-09T06:56:09.711Z,34.03
2023-04-09T06:58:36.301Z,25.05
2023-04-09T07:01:02.951Z,28.10
2023-04-09T07:03:29.826Z,28.48
2023-04-09T07:05:57.647Z,30.90
2023-04-09T07:08:24.303Z,29.88
2023-04-09T07:10:50.915Z,26.35
2023-04-09T07:13:17.575Z,30.58
2023-04-09T07:15:44.264Z,38.67
2023-04-09T07:18:11.048Z,33.20
2023-04-09T07:20:37.612Z,35.05
2023-04-09T07:23:04.240Z,29.85
2023-04-09T07:25:30.787Z,35.10
2023-04-09T07:27:57.887Z,26.98
2023-04-09T07:30:24.546Z,28.92
2023-04-09T07:32:51.930Z,33.55
2023-04-09T07:35:18.854Z,34.33
2023-04-09T07:37:45.511Z,36.25
2023-04-09T07:40:12.183Z,36.00
2023-04-09T07:42:39.338Z,37.63
2023-04-09T07:45:06.456Z,30.67
2023-04-09T07:47:33.111Z,32.90
2023-04-09T07:49:59.651Z,28.35
2023-04-09T07:52:26.266Z,26.08
2023-04-09T07:54:52.809Z,28.85
2023-04-09T07:57:19.306Z,25.83
2023-04-09T07:59:46.748Z,29.95
2023-04-09T08:02:15.404Z,31.20
2023-04-09T08:04:42.230Z,29.33
2023-04-09T08:07:09.144Z,31.40
2023-04-09T08:09:35.610Z,27.58
2023-04-09T08:12:02.166Z,29.00
2023-04-09T08:14:28.711Z,26.67
2023-04-09T08:16:55.567Z,26.30
2023-04-09T08:19:22.263Z,25.42
2023-04-09T08:21:49.713Z,27.13
2023-04-09T08:24:16.421Z,28.88
2023-04-09T08:26:43.093Z,32.80
2023-04-09T08:29:10.608Z,30.35
2023-04-09T08:31:37.594Z,30.40
2023-04-09T08:34:04.348Z,27.98
2023-04-09T08:36:31.836Z,26.98
2023-04-09T08:39:00.530Z,30.80
2023-04-09T08:41:30.984Z,27.08
2023-04-09T08:43:59.186Z,34.10
2023-04-09T08:46:26.649Z,29.77
2023-04-09T08:48:53.641Z,36.03
2023-04-09T08:51:21.691Z,33.63
2023-04-09T08:53:54.264Z,29.48
2023-04-09T08:56:22.091Z,31.73
2023-04-09T08:58:48.638Z,32.95
2023-04-09T09:01:25.634Z,29.17
2023-04-09T09:03:58.497Z,29.52
2023-04-09T09:06:27.385Z,30.65
2023-04-09T09:09:04.380Z,26.98
2023-04-09T09:11:31.117Z,31.83
2023-04-09T09:13:58.315Z,29.30
2023-04-09T09:16:24.886Z,31.75
2023-04-09T09:18:53.415Z,35.33
2023-04-09T09:21:21.206Z,30.63
2023-04-09T09:23:51.055Z,31.13
2023-04-09T09:26:18.816Z,41.33
2023-04-09T09:28:47.043Z,30.77
2023-04-09T09:31:13.814Z,34.80
2023-04-09T09:33:40.821Z,28.90
2023-04-09T09:36:09.575Z,37.42
2023-04-09T09:38:52.419Z,27.60
2023-04-09T09:41:19.796Z,29.77
2023-04-09T09:43:46.409Z,30.23
2023-04-09T09:46:12.930Z,30.80
2023-04-09T09:48:39.687Z,32.38
2023-04-09T09:51:09.774Z,31.27
2023-04-09T09:53:36.816Z,31.73
2023-04-09T09:56:07.514Z,29.23
2023-04-09T09:58:38.705Z,29.08
2023-04-09T10:01:10.178Z,29.40
2023-04-09T10:03:38.473Z,26.30
2023-04-09T10:06:05.500Z,27.33
2023-04-09T10:08:34.345Z,31.35
2023-04-09T10:11:01.169Z,27.05
2023-04-09T10:13:41.798Z,31.60
2023-04-09T10:16:09.103Z,27.70
2023-04-09T10:18:36.587Z,26.35
2023-04-09T10:21:21.418Z,27.02
2023-04-09T10:23:49.513Z,32.80
2023-04-09T10:26:18.030Z,33.50
2023-04-09T10:28:44.666Z,33.95
2023-04-09T10:31:11.731Z,32.05
2023-04-09T10:33:38.726Z,32.60
2023-04-09T10:36:12.498Z,31.52
2023-04-09T10:41:22.512Z,35.53
2023-04-09T10:43:49.215Z,32.97
2023-04-09T10:46:26.830Z,33.25
2023-04-09T10:49:12.514Z,38.75
2023-04-09T10:51:39.830Z,34.83
2023-04-09T10:54:06.880Z,40.28
2023-04-09T10:56:33.541Z,37.63
2023-04-09T10:59:00.046Z,34.72
2023-04-09T11:01:27.411Z,34.13
2023-04-09T11:04:10.190Z,40.42
2023-04-09T11:06:40.376Z,34.23
2023-04-09T11:09:06.889Z,40.40
2023-04-09T11:11:33.784Z,40.15
2023-04-09T11:14:03.349Z,38.30
2023-04-09T11:16:30.954Z,39.08
2023-04-09T11:18:57.611Z,40.03
2023-04-09T11:21:28.653Z,34.17
2023-04-09T11:23:55.505Z,39.33
2023-04-09T11:26:28.463Z,39.72
2023-04-09T11:28:58.446Z,27.47
2023-04-09T11:31:27.369Z,38.15
2023-04-09T11:33:53.922Z,38.92
2023-04-09T11:36:21.440Z,35.30
2023-04-09T11:38:49.271Z,35.25
2023-04-09T11:41:16.641Z,35.70
2023-04-09T11:43:43.233Z,32.28
2023-04-09T11:46:10.033Z,33.17
2023-04-09T11:48:36.788Z,34.53
2023-04-09T11:51:04.113Z,30.67
2023-04-09T11:53:31.173Z,33.50
2023-04-09T11:55:57.717Z,31.95
2023-04-09T11:58:26.379Z,34.53
2023-04-09T12:00:53.919Z,25.65
2023-04-09T12:03:27.591Z,34.13
2023-04-09T12:08:23.707Z,32.17
2023-04-09T12:10:53.103Z,29.95
2023-04-09T12:13:20.029Z,26.70
2023-04-09T12:15:48.909Z,31.50
2023-04-09T12:18:15.451Z,26.85
2023-04-09T12:20:44.187Z,26.15
2023-04-09T12:23:11.426Z,26.63
2023-04-09T12:25:39.490Z,26.95
2023-04-09T12:28:06.696Z,24.90
2023-04-09T12:30:33.852Z,25.13
2023-04-09T12:33:00.559Z,23.33
2023-04-09T12:35:27.148Z,30.02
2023-04-09T12:37:53.787Z,28.45
2023-04-09T12:40:20.620Z,31.27
2023-04-09T12:42:47.251Z,33.65
2023-04-09T12:45:15.021Z,24.60
2023-04-09T12:47:41.800Z,29.10
2023-04-09T12:50:09.409Z,32.03
2023-04-09T12:52:36.264Z,29.88
2023-04-09T12:55:02.960Z,36.75
2023-04-09T12:57:29.689Z,33.00
2023-04-09T12:59:56.292Z,43.25
2023-04-09T13:02:23.213Z,40.22
2023-04-09T13:04:50.936Z,33.40
2023-04-09T13:07:19.111Z,31.98
2023-04-09T13:09:46.068Z,39.45
2023-04-09T13:12:12.947Z,34.78
2023-04-09T13:14:40.149Z,51.25
2023-04-09T13:17:06.787Z,38.08
2023-04-09T13:19:33.506Z,35.25
2023-04-09T13:22:00.206Z,35.92
2023-04-09T13:24:27.372Z,32.47
2023-04-09T13:26:54.156Z,43.17
2023-04-09T13:29:20.647Z,38.95
2023-04-09T13:31:47.168Z,43.25
2023-04-09T13:34:13.642Z,32.15
2023-04-09T13:36:40.432Z,37.00
2023-04-09T13:39:07.091Z,36.47
2023-04-09T13:41:34.067Z,39.72
2023-04-09T13:44:01.005Z,34.95
2023-04-09T13:46:28.295Z,34.45
2023-04-09T13:48:55.132Z,38.28
2023-04-09T13:51:22.152Z,31.10
2023-04-09T13:53:49.001Z,37.78
2023-04-09T13:56:16.288Z,32.97
2023-04-09T13:58:43.812Z,34.17
2023-04-09T14:01:11.089Z,35.97
2023-04-09T14:03:41.078Z,33.78
2023-04-09T14:06:09.052Z,39.55
2023-04-09T14:08:36.038Z,32.05
2023-04-09T14:11:02.732Z,36.53
2023-04-09T14:13:29.251Z,40.53
2023-04-09T14:15:56.742Z,35.60
2023-04-09T14:18:24.460Z,39.10
2023-04-09T14:20:51.172Z,44.92
2023-04-09T14:23:17.730Z,44.08
2023-04-09T14:25:44.700Z,36.15
2023-04-09T14:28:11.353Z,38.03
2023-04-09T14:30:37.927Z,39.78
2023-04-09T14:33:04.521Z,38.00
2023-04-09T14:35:31.101Z,40.30
2023-04-09T14:37:57.688Z,43.45
2023-04-09T14:40:24.212Z,46.33
2023-04-09T14:42:50.866Z,44.13
2023-04-09T14:45:17.376Z,40.85
2023-04-09T14:47:43.932Z,44.65
2023-04-09T14:50:12.873Z,39.10
2023-04-09T14:52:39.565Z,42.50
2023-04-09T14:55:09.153Z,39.13
2023-04-09T14:57:35.641Z,43.83
2023-04-09T15:00:02.363Z,40.10
2023-04-09T15:02:28.966Z,47.15
2023-04-09T15:04:55.694Z,41.78
2023-04-09T15:07:23.877Z,45.33
2023-04-09T15:09:51.612Z,50.03
2023-04-09T15:12:18.525Z,37.42
2023-04-09T15:14:45.046Z,43.00
2023-04-09T15:17:11.547Z,56.13
2023-04-09T15:19:38.064Z,50.80
2023-04-09T15:22:04.586Z,57.70
2023-04-09T15:24:31.110Z,49.55
2023-04-09T15:26:57.680Z,74.15
2023-04-09T15:29:24.180Z,67.10
2023-04-09T15:31:53.071Z,66.85
2023-04-09T15:34:19.616Z,40.72
2023-04-09T15:36:46.367Z,46.15
2023-04-09T15:39:12.908Z,43.85
2023-04-09T15:41:39.428Z,39.33
2023-04-09T15:44:05.998Z,37.17
2023-04-09T15:46:32.591Z,41.70
2023-04-09T15:48:59.075Z,34.25
2023-04-09T15:51:26.813Z,38.80
2023-04-09T15:53:53.482Z,35.38
2023-04-09T15:56:20.373Z,30.42
2023-04-09T15:58:46.858Z,39.53
2023-04-09T16:01:13.527Z,34.30
2023-04-09T16:03:41.334Z,36.65
2023-04-09T16:06:08.795Z,34.13
2023-04-09T16:08:35.756Z,35.40
2023-04-09T16:11:03.118Z,28.83
2023-04-09T16:13:29.689Z,33.53
2023-04-09T16:15:56.697Z,32.80
2023-04-09T16:18:23.446Z,30.58
2023-04-09T16:20:53.947Z,27.40
2023-04-09T16:23:21.164Z,34.33
2023-04-09T16:25:47.826Z,32.30
2023-04-09T16:28:14.966Z,28.80
2023-04-09T16:30:41.467Z,27.85
2023-04-09T16:33:09.118Z,23.88
2023-04-09T16:35:38.869Z,33.10
2023-04-09T16:38:06.719Z,30.05
2023-04-09T16:40:33.645Z,35.92
2023-04-09T16:43:03.465Z,33.05
2023-04-09T16:45:30.045Z,27.80
2023-04-09T16:47:56.628Z,28.52
2023-04-09T16:50:23.297Z,26.02
2023-04-09T16:52:49.868Z,37.70
2023-04-09T16:55:16.739Z,27.55
2023-04-09T16:57:43.292Z,20.67
2023-04-09T17:00:09.955Z,27.25
2023-04-09T17:02:36.887Z,23.10
2023-04-09T17:05:04.432Z,24.75
2023-04-09T17:07:30.910Z,34.55
2023-04-09T17:09:57.529Z,30.90
2023-04-09T17:12:24.655Z,26.58
2023-04-09T17:14:51.681Z,27.38
2023-04-09T17:17:18.685Z,26.92
2023-04-09T17:19:45.232Z,27.77
2023-04-09T17:22:13.447Z,28.90
2023-04-09T17:24:40.251Z,28.38
2023-04-09T17:27:07.425Z,29.05
2023-04-09T17:29:34.199Z,34.28
2023-04-09T17:32:00.842Z,35.50
2023-04-09T17:34:27.560Z,29.52
2023-04-09T17:36:59.901Z,26.70
2023-04-09T17:39:29.054Z,28.77
2023-04-09T17:41:58.245Z,34.35
2023-04-09T17:44:27.619Z,36.75
2023-04-09T17:46:54.282Z,34.92
2023-04-09T17:49:22.499Z,29.60
2023-04-09T17:51:49.053Z,29.80
2023-04-09T17:54:15.637Z,31.30
2023-04-09T17:56:42.213Z,35.72
2023-04-09T17:59:08.776Z,31.40
2023-04-09T18:01:35.438Z,35.17
2023-04-09T18:04:02.347Z,31.45
2023-04-09T18:06:29.296Z,30.25
2023-04-09T18:08:55.864Z,26.98
2023-04-09T18:11:23.663Z,28.30
2023-04-09T18:13:53.000Z,32.28
2023-04-09T18:16:20.922Z,36.45
2023-04-09T18:18:47.615Z,29.25
2023-04-09T18:21:15.294Z,31.15
2023-04-09T18:23:41.877Z,36.05
2023-04-09T18:26:08.447Z,40.03
2023-04-09T18:28:35.748Z,39.50
2023-04-09T18:31:02.396Z,33.17
2023-04-09T18:33:28.929Z,37.05
2023-04-09T18:35:55.466Z,33.83
2023-04-09T18:38:22.111Z,35.85
2023-04-09T18:40:48.647Z,42.05
2023-04-09T18:43:15.125Z,36.35
2023-04-09T18:45:42.046Z,45.15
2023-04-09T18:48:08.995Z,42.70
2023-04-09T18:50:35.749Z,46.20
2023-04-09T18:53:03.766Z,36.97
2023-04-09T18:55:30.566Z,44.63
2023-04-09T18:57:57.554Z,51.55
2023-04-09T19:00:24.379Z,44.90
2023-04-09T19:02:51.056Z,42.20
2023-04-09T19:05:17.812Z,47.58
2023-04-09T19:07:44.321Z,48.75
2023-04-09T19:10:10.927Z,44.08
2023-04-09T19:12:53.987Z,37.38
2023-04-09T19:15:21.191Z,52.22
2023-04-09T19:17:49.074Z,51.28
2023-04-09T19:20:15.951Z,48.60
2023-04-09T19:22:49.337Z,66.00
2023-04-09T19:25:16.310Z,58.33
2023-04-09T19:27:43.237Z,42.42
2023-04-09T19:30:10.038Z,51.90
2023-04-09T19:32:37.161Z,44.83
2023-04-09T19:35:04.198Z,50.60
2023-04-09T19:37:30.921Z,54.28
2023-04-09T19:39:58.155Z,59.05
2023-04-09T19:42:24.916Z,51.10
2023-04-09T19:44:51.426Z,51.63
2023-04-09T19:47:18.030Z,49.40
2023-04-09T19:49:44.858Z,56.97
2023-04-09T19:52:11.651Z,52.85
2023-04-09T19:54:38.272Z,48.13
2023-04-09T19:57:04.889Z,52.15
2023-04-09T19:59:36.207Z,50.33
2023-04-09T20:02:03.059Z,53.45
2023-04-09T20:04:31.070Z,62.15
2023-04-09T20:06:57.714Z,50.05
2023-04-09T20:09:26.484Z,51.55
2023-04-09T20:11:54.258Z,58.17
2023-04-09T20:14:21.139Z,44.83
2023-04-09T20:16:48.145Z,52.90
2023-04-09T20:19:14.788Z,63.03
2023-04-09T20:21:42.028Z,51.28
2023-04-09T20:24:08.507Z,56.70
2023-04-09T20:26:35.036Z,51.50
2023-04-09T20:29:02.674Z,53.38
2023-04-09T20:31:31.000Z,50.90
2023-04-09T20:33:57.653Z,57.15
2023-04-09T20:36:24.175Z,50.78
2023-04-09T20:38:50.872Z,46.65
2023-04-09T20:41:17.413Z,55.72
2023-04-09T20:43:43.914Z,52.53
2023-04-09T20:46:10.960Z,55.30
2023-04-09T20:48:37.649Z,49.70
2023-04-09T20:51:08.713Z,54.67
2023-04-09T20:53:35.232Z,52.67
2023-04-09T20:56:02.216Z,50.78
2023-04-09T20:58:28.844Z,58.08
2023-04-09T21:01:09.650Z,49.15
2023-04-09T21:03:37.293Z,58.17
2023-04-09T21:06:03.990Z,56.00
2023-04-09T21:08:30.865Z,51.65
2023-04-09T21:10:57.476Z,53.67
2023-04-09T21:13:24.754Z,48.90
2023-04-09T21:15:51.352Z,51.50
2023-04-09T21:18:17.896Z,52.50
2023-04-09T21:20:47.794Z,53.88
2023-04-09T21:23:14.478Z,50.45
2023-04-09T21:25:41.121Z,53.13
2023-04-09T21:28:08.126Z,54.33
2023-04-09T21:30:34.828Z,50.80
2023-04-09T21:33:02.136Z,57.20
2023-04-09T21:35:28.672Z,55.42
2023-04-09T21:37:55.298Z,45.22
2023-04-09T21:40:23.424Z,46.15
2023-04-09T21:42:50.101Z,51.78
2023-04-09T21:45:16.953Z,57.53
2023-04-09T21:47:43.970Z,50.25
2023-04-09T21:50:10.948Z,50.03
2023-04-09T21:52:37.527Z,54.08
2023-04-09T21:55:04.179Z,56.25
2023-04-09T21:57:30.860Z,54.05
2023-04-09T21:59:57.404Z,54.63
2023-04-09T22:02:23.992Z,51.95
2023-04-09T22:04:50.779Z,59.90
2023-04-09T22:07:17.375Z,59.35
2023-04-09T22:09:43.874Z,59.67
2023-04-09T22:12:10.789Z,46.80
2023-04-09T22:14:37.930Z,52.42
2023-04-09T22:17:05.090Z,50.65
2023-04-09T22:19:31.864Z,50.33
2023-04-09T22:21:58.537Z,56.97
2023-04-09T22:24:29.826Z,49.25
2023-04-09T22:26:59.954Z,53.60
2023-04-09T22:29:26.749Z,52.60
2023-04-09T22:31:53.571Z,43.42
2023-04-09T22:34:21.678Z,50.97
2023-04-09T22:36:48.680Z,60.58
2023-04-09T22:39:15.266Z,51.53
2023-04-09T22:41:41.766Z,48.00
2023-04-09T22:44:09.711Z,54.40
2023-04-09T22:46:36.713Z,55.53
2023-04-09T22:49:05.273Z,59.58
2023-04-09T22:51:34.772Z,46.10
2023-04-09T22:54:02.172Z,53.38
2023-04-09T22:56:29.442Z,59.10
2023-04-09T22:58:56.359Z,51.30
2023-04-09T23:01:23.313Z,51.30
2023-04-09T23:03:50.497Z,58.72
2023-04-09T23:06:17.321Z,53.78
2023-04-09T23:08:44.011Z,55.10
2023-04-09T23:11:11.012Z,63.03
2023-04-09T23:13:38.299Z,55.45
2023-04-09T23:16:08.461Z,61.90
2023-04-09T23:18:35.609Z,53.35
2023-04-09T23:21:05.669Z,53.72
2023-04-09T23:23:32.203Z,56.20
2023-04-09T23:25:58.755Z,55.20
2023-04-09T23:28:25.316Z,62.03
2023-04-09T23:30:51.919Z,54.47
2023-04-09T23:33:18.464Z,56.92
2023-04-09T23:35:45.075Z,55.95
2023-04-09T23:38:11.638Z,60.17
2023-04-09T23:40:38.178Z,60.88
2023-04-09T23:43:04.691Z,52.60
2023-04-09T23:45:31.273Z,64.75
2023-04-09T23:47:57.823Z,65.57
2023-04-09T23:50:24.698Z,62.15
2023-04-09T23:52:52.106Z,69.30
2023-04-09T23:55:18.972Z,68.35
2023-04-09T23:57:45.531Z,64.05
